Time;durP1;ratioP1;P1;durP2;ratioP2;P2;SDS_P1;SDS_P2;PMS_P1;PMS_P2;Temp;Humidity;BMP_temperature;BMP_pressure;BME280_temperature;BME280_humidity;BME280_pressure;Samples;Min_cycle;Max_cycle;Signal;HPM_P1;HPM_P2
2023/01/26 01:37:54;;;;;;;47.70;28.00;;;;;;;-2.69;92.84;102161.19;103855;1285;613500;-86
2023/01/26 01:40:23;;;;;;;42.70;24.80;;;;;;;-2.40;92.83;102160.89;105281;1266;120961;-85
2023/01/26 01:42:51;;;;;;;45.80;24.60;;;;;;;-2.29;92.66;102163.66;105371;1261;60013;-86
2023/01/26 01:45:43;;;;;;;42.40;23.30;;;;;;;-2.23;92.21;102167.35;105353;1263;73201;-86
2023/01/26 01:48:28;;;;;;;41.20;23.90;;;;;;;-2.16;91.95;102165.77;105500;1263;64868;-86
2023/01/26 01:50:59;;;;;;;38.90;24.10;;;;;;;-2.11;92.07;102160.73;105407;1261;71976;-84
2023/01/26 01:53:30;;;;;;;48.90;24.60;;;;;;;-2.01;91.86;102163.79;105393;1263;60328;-85
2023/01/26 01:56:02;;;;;;;39.10;24.00;;;;;;;-1.95;91.74;102159.63;105428;1266;60364;-86
2023/01/26 01:58:30;;;;;;;44.60;25.60;;;;;;;-1.87;91.57;102154.10;105328;1265;73167;-85
2023/01/26 02:00:58;;;;;;;60.00;28.80;;;;;;;-1.81;91.38;102152.64;105424;1266;63745;-84
2023/01/26 02:03:27;;;;;;;58.80;27.70;;;;;;;-1.78;90.85;102154.25;105417;1266;73625;-85
2023/01/26 02:06:13;;;;;;;47.10;25.80;;;;;;;-1.79;90.21;102153.88;105325;1261;62750;-85
2023/01/26 02:08:50;;;;;;;57.40;28.40;;;;;;;-1.81;89.77;102156.08;105307;1261;61272;-83
2023/01/26 02:11:38;;;;;;;49.70;26.50;;;;;;;-1.83;89.56;102156.71;105456;1266;74078;-84
2023/01/26 02:14:08;;;;;;;43.30;26.10;;;;;;;-1.86;89.69;102154.44;105865;1263;63662;-84
2023/01/26 02:16:38;;;;;;;37.50;22.90;;;;;;;-1.86;89.44;102155.30;105957;1264;73065;-84
2023/01/26 02:19:11;;;;;;;34.50;22.30;;;;;;;-1.87;89.19;102156.31;105417;1261;60823;-83
2023/01/26 02:21:41;;;;;;;39.00;22.10;;;;;;;-1.86;89.07;102154.62;106365;1263;61006;-83
2023/01/26 02:24:25;;;;;;;40.20;23.20;;;;;;;-1.87;88.89;102150.83;105240;1266;72020;-85
2023/01/26 02:26:53;;;;;;;46.50;24.80;;;;;;;-1.81;89.16;102149.73;106051;1261;64836;-85
2023/01/26 02:29:22;;;;;;;41.40;23.00;;;;;;;-1.77;88.75;102146.53;105572;1261;73474;-86
2023/01/26 02:31:52;;;;;;;40.70;23.70;;;;;;;-1.85;87.89;102145.38;105273;1266;60545;-85
2023/01/26 02:34:24;;;;;;;37.70;22.50;;;;;;;-1.95;87.99;102145.73;105388;1262;60143;-87
2023/01/26 02:36:57;;;;;;;33.20;20.40;;;;;;;-1.96;88.21;102145.88;105413;1261;74314;-87
2023/01/26 02:39:34;;;;;;;35.20;21.10;;;;;;;-1.96;88.08;102146.77;105322;1265;64881;-87
2023/01/26 02:44:50;;;;;;;36.70;22.40;;;;;;;-2.09;87.90;102150.13;105427;1263;60575;-85
2023/01/26 02:47:19;;;;;;;41.10;23.30;;;;;;;-2.05;88.88;102146.59;105277;1261;61041;-85
2023/01/26 02:49:49;;;;;;;45.20;25.00;;;;;;;-1.96;88.97;102148.29;105366;1264;73373;-85
2023/01/26 02:52:21;;;;;;;51.60;23.70;;;;;;;-1.90;88.53;102140.67;105470;1267;64794;-85
2023/01/26 02:57:42;;;;;;;37.70;21.70;;;;;;;-1.96;87.81;102146.58;105393;1263;62166;-86
2023/01/26 03:00:16;;;;;;;36.30;22.80;;;;;;;-2.00;87.76;102147.02;105335;1261;61278;-86
2023/01/26 03:02:45;;;;;;;35.50;22.50;;;;;;;-2.09;87.67;102144.64;105471;1263;72689;-87
2023/01/26 03:05:13;;;;;;;36.20;22.40;;;;;;;-2.10;88.21;102146.00;105388;1260;62540;-87
2023/01/26 03:07:42;;;;;;;37.80;21.90;;;;;;;-2.11;87.90;102143.26;105410;1258;73434;-85
2023/01/26 03:10:11;;;;;;;40.30;21.80;;;;;;;-2.11;87.61;102140.33;105621;1260;61264;-82
2023/01/26 03:12:41;;;;;;;38.60;22.60;;;;;;;-2.13;87.85;102134.65;105484;1257;60510;-86
2023/01/26 03:29:13;;;;;;;33.70;21.90;;;;;;;-2.16;86.79;102126.19;105666;1258;73427;-88
2023/01/26 03:31:42;;;;;;;36.60;22.40;;;;;;;-2.24;87.26;102126.23;105848;1261;63945;-85
2023/01/26 03:34:10;;;;;;;35.50;21.30;;;;;;;-2.23;87.71;102123.52;106169;1256;73476;-87
2023/01/26 03:36:39;;;;;;;35.80;20.90;;;;;;;-2.19;87.77;102122.89;105903;1256;62175;-84
2023/01/26 03:41:06;;;;;;;37.80;21.60;;;;;;;-2.21;87.24;102123.20;106018;1256;61060;-85
2023/01/26 03:56:23;;;;;;;37.20;22.30;;;;;;;-2.50;87.14;102123.72;106251;1257;72756;-85
2023/01/26 03:58:56;;;;;;;39.70;21.00;;;;;;;-2.50;87.25;102122.36;106259;1256;64545;-84
2023/01/26 04:01:31;;;;;;;45.50;23.30;;;;;;;-2.53;87.41;102123.52;106538;1256;72973;-86
2023/01/26 04:09:40;;;;;;;40.00;23.80;;;;;;;-2.33;87.86;102120.27;106765;1256;74112;-85
2023/01/26 04:12:10;;;;;;;42.40;23.00;;;;;;;-2.32;87.51;102121.13;108664;1251;63657;-83
2023/01/26 04:23:18;;;;;;;42.10;23.70;;;;;;;-2.29;87.35;102128.20;107571;1256;72872;-83
2023/01/26 04:25:47;;;;;;;44.90;25.00;;;;;;;-2.23;87.93;102130.70;106168;1257;64993;-86
2023/01/26 04:28:16;;;;;;;44.50;26.60;;;;;;;-2.14;88.14;102127.61;106099;1257;73445;-85
2023/01/26 04:30:45;;;;;;;44.40;25.70;;;;;;;-2.03;88.01;102127.26;106127;1252;59653;-85
2023/01/26 04:33:14;;;;;;;47.60;23.00;;;;;;;-1.99;87.62;102128.89;105900;1256;61012;-84
2023/01/26 04:35:42;;;;;;;49.70;24.60;;;;;;;-1.97;87.42;102131.31;106026;1256;72983;-86
2023/01/26 04:38:11;;;;;;;44.80;24.40;;;;;;;-1.98;86.87;102134.38;105963;1251;65604;-86
2023/01/26 04:40:42;;;;;;;40.40;23.50;;;;;;;-2.05;86.26;102133.74;106853;1252;73388;-85
2023/01/26 04:43:11;;;;;;;39.90;21.80;;;;;;;-2.10;86.17;102132.30;106189;1257;62064;-86
2023/01/26 04:45:39;;;;;;;42.30;22.90;;;;;;;-2.17;86.01;102133.55;106708;1251;61006;-83
2023/01/26 04:48:07;;;;;;;37.10;22.00;;;;;;;-2.18;86.39;102130.45;106532;1255;73376;-85
2023/01/26 04:50:36;;;;;;;42.50;23.40;;;;;;;-2.17;86.70;102129.44;106363;1256;64551;-84
2023/01/26 04:53:05;;;;;;;41.10;22.00;;;;;;;-2.16;86.55;102132.36;106833;1256;72713;-84
2023/01/26 04:55:33;;;;;;;36.20;21.80;;;;;;;-2.16;86.39;102135.79;106115;1256;60007;-86
2023/01/26 04:58:02;;;;;;;41.60;22.00;;;;;;;-2.18;86.14;102140.20;106075;1251;61932;-86
2023/01/26 05:00:31;;;;;;;34.60;21.80;;;;;;;-2.24;85.64;102144.39;105993;1257;74007;-87
2023/01/26 05:03:04;;;;;;;37.10;21.10;;;;;;;-2.28;85.65;102144.99;106066;1257;64827;-87
2023/01/26 05:05:37;;;;;;;39.60;21.50;;;;;;;-2.30;85.64;102147.70;105958;1256;73906;-88
2023/01/26 05:08:05;;;;;;;37.40;21.50;;;;;;;-2.37;85.39;102147.77;105979;1252;61031;-88
2023/01/26 05:10:34;;;;;;;38.60;21.50;;;;;;;-2.40;85.82;102148.04;105987;1257;60302;-85
2023/01/26 05:13:21;;;;;;;37.90;21.00;;;;;;;-2.43;85.54;102149.37;106062;1251;71769;-87
2023/01/26 05:16:21;;;;;;;37.50;20.00;;;;;;;-2.51;85.24;102149.39;106172;1251;64658;-87
2023/01/26 05:18:59;;;;;;;45.20;23.80;;;;;;;-2.58;85.33;102147.20;106343;1257;73410;-85
2023/01/26 05:21:39;;;;;;;43.20;22.30;;;;;;;-2.66;85.47;102143.79;106342;1252;59807;-86
2023/01/26 05:24:07;;;;;;;44.30;22.30;;;;;;;-2.73;85.53;102143.83;106272;1257;60414;-87
2023/01/26 05:27:19;;;;;;;38.10;20.30;;;;;;;-2.77;85.56;102140.67;106379;1257;73979;-85
2023/01/26 05:29:59;;;;;;;39.30;23.00;;;;;;;-2.78;85.45;102139.98;106575;1257;65268;-86
2023/01/26 05:32:29;;;;;;;45.60;23.70;;;;;;;-2.80;85.51;102136.17;106555;1257;72640;-88
2023/01/26 05:34:57;;;;;;;37.30;22.10;;;;;;;-2.77;86.32;102136.77;106396;1257;60487;-87
2023/01/26 05:37:26;;;;;;;39.70;19.90;;;;;;;-2.70;86.80;102135.33;106578;1253;60369;-86
2023/01/26 05:39:55;;;;;;;35.20;22.50;;;;;;;-2.61;86.71;102138.94;106386;1256;73038;-85
2023/01/26 05:42:23;;;;;;;42.50;21.10;;;;;;;-2.52;86.51;102141.14;106924;1251;64825;-86
2023/01/26 05:45:09;;;;;;;48.30;22.00;;;;;;;-2.46;86.22;102144.52;106728;1257;73893;-85
2023/01/26 05:47:39;;;;;;;41.60;21.40;;;;;;;-2.49;85.59;102145.66;106953;1251;60359;-87
2023/01/26 05:50:09;;;;;;;43.40;21.70;;;;;;;-2.56;85.50;102147.94;107182;1257;60081;-86
2023/01/26 05:52:38;;;;;;;35.90;20.50;;;;;;;-2.61;85.43;102147.33;106944;1257;73817;-87
2023/01/26 05:55:06;;;;;;;35.00;20.20;;;;;;;-2.66;85.17;102152.19;106323;1251;64837;-87
2023/01/26 05:57:35;;;;;;;36.10;20.30;;;;;;;-2.70;85.21;102154.16;107304;1255;72683;-86
2023/01/26 06:00:06;;;;;;;34.90;20.40;;;;;;;-2.69;85.61;102153.15;107143;1256;61142;-86
2023/01/26 06:02:40;;;;;;;38.80;21.40;;;;;;;-2.67;85.88;102153.86;106514;1251;60415;-88
2023/01/26 06:05:13;;;;;;;39.20;21.20;;;;;;;-2.63;86.16;102152.23;106915;1251;74659;-85
2023/01/26 06:07:43;;;;;;;43.60;23.30;;;;;;;-2.56;86.13;102155.12;106726;1251;64593;-87
2023/01/26 06:10:19;;;;;;;37.70;22.30;;;;;;;-2.56;85.38;102154.09;106595;1257;71823;-87
2023/01/26 06:12:59;;;;;;;48.20;26.60;;;;;;;-2.58;85.19;102157.98;106665;1257;60655;-86
2023/01/26 06:15:40;;;;;;;51.50;27.30;;;;;;;-2.56;85.28;102161.80;107658;1251;61573;-85
2023/01/26 06:18:13;;;;;;;65.60;32.60;;;;;;;-2.55;85.11;102164.55;109699;1251;73867;-85
2023/01/26 06:20:49;;;;;;;50.00;25.80;;;;;;;-2.52;84.62;102162.04;109851;1251;63609;-85
2023/01/26 06:23:18;;;;;;;41.50;24.10;;;;;;;-2.55;84.58;102165.74;109650;1257;72653;-85
2023/01/26 06:25:47;;;;;;;33.10;18.60;;;;;;;-2.54;84.87;102170.05;109784;1251;60035;-86
2023/01/26 06:28:16;;;;;;;30.20;18.70;;;;;;;-2.47;85.00;102173.61;109685;1251;60244;-87
2023/01/26 06:30:44;;;;;;;31.30;19.90;;;;;;;-2.39;84.90;102174.09;109849;1251;73475;-87
2023/01/26 06:33:13;;;;;;;31.50;19.40;;;;;;;-2.38;84.71;102177.04;109778;1251;63786;-85
2023/01/26 06:35:45;;;;;;;31.40;18.60;;;;;;;-2.34;84.47;102180.00;109864;1251;72853;-85
2023/01/26 06:38:14;;;;;;;34.60;21.60;;;;;;;-2.30;84.30;102176.30;109891;1251;59291;-85
2023/01/26 06:40:44;;;;;;;35.30;20.80;;;;;;;-2.29;83.89;102174.10;109579;1251;59957;-86
2023/01/26 06:43:14;;;;;;;33.60;20.50;;;;;;;-2.32;83.62;102172.17;109549;1251;73544;-86
2023/01/26 06:45:43;;;;;;;33.50;21.20;;;;;;;-2.32;83.76;102172.69;109577;1251;63708;-87
2023/01/26 06:48:12;;;;;;;34.10;20.30;;;;;;;-2.28;83.45;102172.23;108680;1251;72611;-87
2023/01/26 06:50:40;;;;;;;35.10;20.50;;;;;;;-2.27;83.35;102168.48;107235;1251;61883;-86
2023/01/26 06:53:25;;;;;;;33.10;19.30;;;;;;;-2.26;83.42;102172.09;106728;1255;60998;-86
2023/01/26 06:56:12;;;;;;;31.70;19.30;;;;;;;-2.25;83.43;102169.05;106837;1253;73537;-87
2023/01/26 06:59:09;;;;;;;32.60;18.10;;;;;;;-2.26;83.02;102169.54;107368;1251;63999;-89
2023/01/26 07:01:57;;;;;;;30.50;17.90;;;;;;;-2.31;83.01;102172.38;107531;1251;72603;-87
2023/01/26 07:04:26;;;;;;;33.30;18.80;;;;;;;-2.33;83.22;102169.74;107699;1254;61956;-85
2023/01/26 07:06:55;;;;;;;31.90;19.20;;;;;;;-2.37;83.01;102167.98;107364;1251;60325;-87
2023/01/26 07:09:24;;;;;;;34.10;19.60;;;;;;;-2.40;83.28;102169.98;107728;1256;74504;-86
2023/01/26 07:11:53;;;;;;;32.50;20.90;;;;;;;-2.39;83.48;102171.70;107733;1251;64534;-87
2023/01/26 07:14:31;;;;;;;30.60;18.20;;;;;;;-2.31;83.99;102175.96;107983;1253;72736;-87
2023/01/26 07:16:59;;;;;;;33.70;20.30;;;;;;;-2.18;84.19;102175.33;107367;1256;60486;-86
2023/01/26 07:19:32;;;;;;;33.50;19.60;;;;;;;-2.05;83.81;102175.89;107467;1252;61257;-86
2023/01/26 07:22:00;;;;;;;34.20;19.90;;;;;;;-1.93;83.69;102181.23;108443;1254;73858;-85
2023/01/26 07:24:37;;;;;;;35.70;20.60;;;;;;;-1.87;82.93;102182.89;108500;1254;63608;-86
2023/01/26 07:27:08;;;;;;;38.20;20.30;;;;;;;-1.87;82.77;102181.33;107530;1252;73636;-87
2023/01/26 07:29:38;;;;;;;35.70;20.00;;;;;;;-1.87;82.48;102180.15;108437;1252;60232;-87
2023/01/26 07:32:09;;;;;;;40.00;21.60;;;;;;;-1.89;82.41;102179.92;107717;1253;60626;-86
2023/01/26 11:13:27;;;;;;;47.70;31.90;;;;;;;3.59;73.52;102013.52;104209;1282;612744;-90
2023/01/26 11:16:21;;;;;;;41.90;28.70;;;;;;;4.39;69.89;102014.02;104890;1271;126820;-88
2023/01/26 11:19:10;;;;;;;47.10;31.00;;;;;;;4.46;68.54;102011.19;105506;1271;60515;-85
2023/01/26 11:21:45;;;;;;;52.50;31.40;;;;;;;4.60;67.74;102008.41;106131;1260;72479;-89
2023/01/26 11:24:26;;;;;;;43.20;30.20;;;;;;;4.70;66.90;102007.58;106038;1261;63844;-89
2023/01/26 11:27:15;;;;;;;44.60;28.90;;;;;;;4.64;66.23;102006.29;105854;1267;72861;-91
2023/01/26 11:30:01;;;;;;;48.90;31.60;;;;;;;4.48;65.61;102001.98;105988;1263;60591;-90
2023/01/26 11:33:05;;;;;;;50.30;30.90;;;;;;;4.28;65.95;102000.83;106165;1262;61868;-90
2023/01/26 11:35:38;;;;;;;46.10;29.70;;;;;;;4.12;66.49;102001.34;105840;1266;73530;-91
2023/01/26 11:38:11;;;;;;;40.40;27.50;;;;;;;3.96;66.43;102000.66;106060;1266;63864;-90
2023/01/26 11:40:54;;;;;;;43.70;28.50;;;;;;;3.73;66.84;101998.64;106703;1266;71776;-90
2023/01/26 11:43:50;;;;;;;49.40;29.70;;;;;;;3.55;67.35;101994.83;108659;1266;59577;-89
2023/01/26 11:46:40;;;;;;;44.60;28.80;;;;;;;3.37;67.64;101992.36;106234;1266;61927;-89
2023/01/26 11:49:18;;;;;;;50.10;30.20;;;;;;;3.17;68.31;101985.42;107599;1265;73808;-90
2023/01/26 11:51:56;;;;;;;41.70;28.30;;;;;;;3.03;68.97;101983.81;107131;1260;63844;-91
2023/01/26 11:54:33;;;;;;;44.70;28.60;;;;;;;2.89;69.44;101985.27;107318;1260;72696;-91
2023/01/26 11:57:38;;;;;;;39.90;26.90;;;;;;;2.78;69.80;101984.83;107662;1260;61313;-91
2023/01/26 12:00:11;;;;;;;;;;;;;;;2.73;70.32;101983.46;107883;1260;61754;-89
2023/01/26 12:03:01;;;;;;;42.40;25.40;;;;;;;2.74;71.01;101984.48;108101;1260;71691;-91
2023/01/26 12:05:41;;;;;;;34.70;25.10;;;;;;;2.80;71.35;101978.08;108083;1260;62725;-90
2023/01/26 12:08:21;;;;;;;42.10;24.20;;;;;;;2.89;71.20;101977.33;108277;1260;72641;-89
2023/01/26 12:11:22;;;;;;;46.60;25.80;;;;;;;2.89;70.98;101976.30;108704;1260;59803;-89
2023/01/26 12:14:00;;;;;;;39.60;23.90;;;;;;;2.81;71.28;101972.03;108761;1253;60233;-89
2023/01/26 12:16:58;;;;;;;41.60;25.00;;;;;;;2.80;71.52;101975.48;108776;1253;73129;-87
2023/01/26 12:20:03;;;;;;;38.60;24.10;;;;;;;2.91;71.68;101978.17;108126;1253;63601;-90
2023/01/26 12:22:37;;;;;;;36.80;24.10;;;;;;;2.95;71.36;101977.80;106929;1253;72576;-88
2023/01/26 12:25:07;;;;;;;42.60;26.00;;;;;;;2.90;71.31;101978.02;106851;1253;59623;-88
2023/01/26 12:28:02;;;;;;;39.90;26.30;;;;;;;2.93;71.68;101977.13;106777;1253;60279;-89
2023/01/26 12:31:03;;;;;;;40.50;26.00;;;;;;;3.01;71.57;101978.13;107744;1259;72689;-89
2023/01/26 12:33:48;;;;;;;40.70;26.70;;;;;;;3.10;71.68;101975.98;108948;1253;67028;-89
2023/01/26 12:36:47;;;;;;;44.20;29.00;;;;;;;3.19;71.40;101973.48;107427;1253;73293;-90
2023/01/26 12:39:24;;;;;;;44.10;26.50;;;;;;;3.31;71.17;101977.38;107371;1253;59699;-90
2023/01/26 12:42:32;;;;;;;39.50;26.90;;;;;;;3.32;70.75;101975.13;107751;1253;60025;-89
2023/01/26 12:45:06;;;;;;;40.10;25.80;;;;;;;3.22;70.94;101973.64;106932;1255;72710;-89
2023/01/26 12:47:42;;;;;;;45.80;26.70;;;;;;;3.22;71.08;101972.08;106887;1253;63585;-90
2023/01/26 12:50:40;;;;;;;40.60;25.10;;;;;;;3.18;71.02;101967.11;106492;1253;72897;-89
2023/01/26 12:53:17;;;;;;;38.10;25.50;;;;;;;3.10;71.09;101961.11;106114;1253;59624;-87
2023/01/26 12:56:20;;;;;;;46.40;27.10;;;;;;;3.05;71.39;101957.36;106481;1253;61643;-88
2023/01/26 12:58:50;;;;;;;36.90;26.30;;;;;;;3.07;71.74;101959.42;106595;1257;73986;-89
2023/01/26 13:01:21;;;;;;;38.60;26.30;;;;;;;3.05;71.77;101954.23;106899;1257;64879;-87
2023/01/26 13:03:55;;;;;;;38.90;25.40;;;;;;;2.99;71.49;101951.36;106645;1255;73641;-90
2023/01/26 13:06:25;;;;;;;;;;;;;;;2.89;71.53;101949.52;106713;1253;59627;-89
2023/01/26 13:08:56;;;;;;;38.00;24.40;;;;;;;2.80;71.60;101949.06;106282;1257;59833;-87
2023/01/26 13:11:38;;;;;;;42.10;26.90;;;;;;;2.73;71.90;101950.33;107186;1253;73879;-89
2023/01/26 13:14:42;;;;;;;36.50;25.00;;;;;;;2.69;72.05;101951.02;107740;1254;63877;-88
2023/01/26 13:17:16;;;;;;;38.50;24.90;;;;;;;2.58;72.10;101947.46;107204;1259;72620;-90
2023/01/26 13:19:45;;;;;;;40.40;27.10;;;;;;;2.50;72.78;101952.17;107539;1260;59836;-88
2023/01/26 13:22:22;;;;;;;38.80;27.30;;;;;;;2.47;72.88;101953.73;107639;1259;60302;-90
2023/01/26 13:24:54;;;;;;;41.10;27.60;;;;;;;2.44;73.27;101948.73;108529;1259;71909;-88
2023/01/26 13:27:31;;;;;;;37.40;25.30;;;;;;;2.45;73.52;101947.53;106394;1263;64550;-89
2023/01/26 13:30:00;;;;;;;45.90;27.60;;;;;;;2.39;73.63;101944.10;107057;1259;72819;-89
2023/01/26 13:32:34;;;;;;;42.40;27.50;;;;;;;2.37;74.16;101946.54;106070;1259;59747;-89
2023/01/26 13:35:07;;;;;;;48.40;30.00;;;;;;;2.37;74.40;101941.52;106053;1259;59583;-89
2023/01/26 13:38:00;;;;;;;46.00;28.80;;;;;;;2.37;74.31;101944.12;105866;1264;72842;-90
2023/01/26 13:40:36;;;;;;;49.20;28.90;;;;;;;2.31;74.33;101942.59;105880;1259;64272;-91
2023/01/26 13:43:27;;;;;;;45.80;29.40;;;;;;;2.21;74.06;101941.77;105958;1259;73667;-90
2023/01/26 13:46:17;;;;;;;60.70;35.90;;;;;;;2.06;74.34;101941.83;106993;1259;60579;-87
2023/01/26 13:48:47;;;;;;;57.90;36.80;;;;;;;1.94;74.57;101939.11;107694;1259;60597;-87
2023/01/26 13:51:28;;;;;;;57.00;33.60;;;;;;;1.88;74.80;101937.91;107922;1259;73167;-87
2023/01/26 13:54:02;;;;;;;52.40;34.30;;;;;;;1.81;75.21;101939.14;108093;1253;63842;-87
2023/01/26 13:56:35;;;;;;;;;;;;;;;1.75;75.39;101932.42;107457;1253;73636;-85
2023/01/26 13:59:12;;;;;;;47.90;28.00;;;;;;;1.72;75.94;101933.30;107725;1253;61240;-87
2023/01/26 14:01:47;;;;;;;43.30;27.30;;;;;;;1.69;76.20;101924.69;108203;1253;60305;-87
2023/01/26 14:04:26;;;;;;;41.40;26.70;;;;;;;1.68;76.55;101924.35;106918;1253;73019;-89
2023/01/26 14:06:56;;;;;;;42.20;26.80;;;;;;;1.66;76.48;101925.38;106753;1253;63593;-90
2023/01/26 14:09:26;;;;;;;47.20;32.40;;;;;;;1.64;76.37;101925.73;107348;1253;73682;-90
2023/01/26 14:12:01;;;;;;;52.70;34.00;;;;;;;1.61;76.52;101925.73;107381;1253;61224;-88
2023/01/26 14:14:46;;;;;;;52.00;32.20;;;;;;;1.56;76.51;101925.73;109040;1253;59236;-90
2023/01/26 14:17:57;;;;;;;50.90;33.10;;;;;;;1.45;76.52;101923.00;107910;1257;75741;-87
2023/01/26 14:20:30;;;;;;;55.90;36.00;;;;;;;1.39;76.59;101919.05;107073;1256;64104;-88
2023/01/26 14:23:09;;;;;;;55.90;36.90;;;;;;;1.32;76.66;101917.33;106869;1258;72356;-90
2023/01/26 14:25:55;;;;;;;69.00;40.40;;;;;;;1.24;77.01;101918.37;106873;1257;61155;-91
2023/01/26 14:28:30;;;;;;;71.40;43.30;;;;;;;1.17;77.40;101911.83;106412;1253;61282;-91
2023/01/26 14:31:02;;;;;;;68.70;44.90;;;;;;;1.14;77.61;101914.23;106430;1258;73265;-89
2023/01/26 14:33:33;;;;;;;85.50;50.10;;;;;;;1.12;77.94;101915.27;106487;1256;64897;-90
2023/01/26 14:36:03;;;;;;;103.80;58.10;;;;;;;1.10;78.22;101918.02;106794;1258;73601;-90
2023/01/26 14:38:42;;;;;;;82.50;47.40;;;;;;;1.08;78.42;101918.38;106513;1256;59861;-89
2023/01/26 14:41:23;;;;;;;91.90;50.50;;;;;;;1.06;78.57;101918.02;106303;1258;61548;-89
2023/01/26 14:43:52;;;;;;;87.50;48.40;;;;;;;1.03;78.47;101918.53;105827;1256;73986;-89
2023/01/26 14:46:46;;;;;;;98.10;53.10;;;;;;;1.00;78.48;101915.77;106006;1254;63838;-88
2023/01/26 14:49:19;;;;;;;110.30;61.20;;;;;;;0.94;78.50;101912.85;105907;1256;72262;-88
2023/01/26 14:51:50;;;;;;;133.00;70.90;;;;;;;0.88;78.58;101913.70;106039;1257;61274;-90
2023/01/26 14:54:27;;;;;;;133.30;71.50;;;;;;;0.80;78.69;101915.08;105914;1258;61703;-89
2023/01/26 14:56:56;;;;;;;188.70;107.90;;;;;;;0.72;79.00;101906.97;106773;1254;72807;-87
2023/01/26 14:59:32;;;;;;;101.60;61.30;;;;;;;0.64;79.05;101904.20;106565;1257;65366;-88
2023/01/26 15:02:15;;;;;;;136.10;76.30;;;;;;;0.56;79.03;101900.75;106171;1256;72632;-89
2023/01/26 15:04:50;;;;;;;170.50;90.40;;;;;;;0.52;79.37;101899.88;106231;1256;60028;-91
2023/01/26 15:07:34;;;;;;;151.00;82.00;;;;;;;0.50;79.74;101896.09;106358;1254;60636;-89
2023/01/26 15:10:21;;;;;;;149.40;82.60;;;;;;;0.47;79.69;101897.29;106609;1256;74157;-89
2023/01/26 15:13:09;;;;;;;144.30;78.90;;;;;;;0.40;79.48;101894.86;107177;1256;64738;-86
2023/01/26 15:15:40;;;;;;;123.60;69.80;;;;;;;0.31;79.50;101897.59;107071;1256;72472;-88
2023/01/26 15:18:11;;;;;;;108.90;61.30;;;;;;;0.24;79.53;101893.09;106111;1257;59741;-89
2023/01/26 15:20:42;;;;;;;76.70;47.20;;;;;;;0.18;79.68;101892.55;106163;1256;60088;-89
2023/01/26 15:23:18;;;;;;;70.80;40.60;;;;;;;0.15;79.60;101893.76;106642;1258;72978;-89
2023/01/26 15:25:46;;;;;;;77.40;46.20;;;;;;;0.09;79.58;101892.87;106556;1254;64847;-88
2023/01/26 15:28:17;;;;;;;78.90;41.80;;;;;;;0.04;79.68;101891.65;106138;1255;73619;-90
2023/01/26 15:30:49;;;;;;;114.70;64.40;;;;;;;0.01;79.73;101889.92;106666;1258;60380;-89
2023/01/26 15:38:11;;;;;;;226.00;95.00;;;;;;;-0.08;79.71;101896.06;108610;1255;74491;-88
2023/01/26 15:40:41;;;;;;;324.30;131.10;;;;;;;-0.16;79.76;101899.64;109185;1253;62725;-90
2023/01/26 15:43:17;;;;;;;202.40;105.70;;;;;;;-0.26;79.86;101900.45;108144;1256;72587;-88
2023/01/26 15:46:30;;;;;;;146.10;90.60;;;;;;;-0.37;79.90;101903.30;106751;1253;61876;-89
2023/01/26 15:49:41;;;;;;;229.80;115.20;;;;;;;-0.52;80.27;101897.70;106000;1263;60628;-89
2023/01/26 15:52:17;;;;;;;257.20;124.00;;;;;;;-0.57;80.49;101897.85;105798;1259;72864;-90
2023/01/26 15:54:46;;;;;;;232.40;113.60;;;;;;;-0.60;80.63;101904.19;106163;1259;64631;-90
2023/01/26 15:57:16;;;;;;;219.10;111.00;;;;;;;-0.63;81.07;101900.05;107655;1260;73508;-88
2023/01/26 15:59:47;;;;;;;219.90;116.10;;;;;;;-0.62;80.99;101900.23;106839;1259;60557;-89
2023/01/26 16:02:18;;;;;;;242.20;122.60;;;;;;;-0.64;80.75;101899.87;105983;1259;60471;-88
2023/01/26 16:04:46;;;;;;;221.30;111.60;;;;;;;-0.66;80.98;101904.84;105915;1259;74679;-89
2023/01/26 20:18:48;;;;;;;203.20;114.10;;;;;;;-4.30;87.29;101827.23;105493;1282;615376;-89
2023/01/26 20:22:45;;;;;;;222.00;117.80;;;;;;;-3.98;87.02;101820.35;103460;1280;60230;-91
2023/01/26 20:26:11;;;;;;;194.20;107.70;;;;;;;-3.85;86.84;101816.33;107066;1280;73525;-89
2023/01/26 20:28:51;;;;;;;214.20;115.40;;;;;;;-3.65;86.77;101822.66;106089;1280;62453;-90
2023/01/26 20:32:09;;;;;;;190.10;107.70;;;;;;;-3.54;86.50;101819.44;107708;1268;71857;-89
